sensor_id;sensor_type;location;lat;lon;timestamp;pressure;altitude;pressure_sealevel;temperature;humidity
61408;BME280;47274;43.054;25.146;2023-08-30T00:01:48;94598.69;;;22.56;55.04
61408;BME280;47274;43.054;25.146;2023-08-30T00:04:21;94583.19;;;22.71;55.63
61408;BME280;47274;43.054;25.146;2023-08-30T00:06:48;94613.47;;;23.11;53.94
61408;BME280;47274;43.054;25.146;2023-08-30T00:09:14;94585.94;;;22.60;55.81
61408;BME280;47274;43.054;25.146;2023-08-30T00:11:40;94664.84;;;22.96;56.29
61408;BME280;47274;43.054;25.146;2023-08-30T00:14:08;94647.34;;;22.79;55.37
61408;BME280;47274;43.054;25.146;2023-08-30T00:16:35;94623.53;;;22.98;54.63
61408;BME280;47274;43.054;25.146;2023-08-30T00:19:07;94642.00;;;23.13;54.23
61408;BME280;47274;43.054;25.146;2023-08-30T00:21:33;94633.50;;;23.01;56.23
61408;BME280;47274;43.054;25.146;2023-08-30T00:24:01;94681.53;;;23.11;55.30
61408;BME280;47274;43.054;25.146;2023-08-30T00:26:27;94678.59;;;23.35;56.12
61408;BME280;47274;43.054;25.146;2023-08-30T00:28:57;94640.09;;;22.86;56.74
61408;BME280;47274;43.054;25.146;2023-08-30T00:31:23;94644.81;;;23.06;54.82
61408;BME280;47274;43.054;25.146;2023-08-30T00:33:49;94624.97;;;22.88;55.08
61408;BME280;47274;43.054;25.146;2023-08-30T00:36:15;94627.22;;;22.80;55.34
61408;BME280;47274;43.054;25.146;2023-08-30T00:38:42;94635.88;;;23.29;54.96
61408;BME280;47274;43.054;25.146;2023-08-30T00:41:08;94667.09;;;23.63;53.46
61408;BME280;47274;43.054;25.146;2023-08-30T00:43:34;94629.41;;;23.37;54.23
61408;BME280;47274;43.054;25.146;2023-08-30T00:46:03;94665.97;;;23.54;53.96
61408;BME280;47274;43.054;25.146;2023-08-30T00:48:29;94645.41;;;23.13;56.48
61408;BME280;47274;43.054;25.146;2023-08-30T00:50:55;94605.34;;;22.64;56.48
61408;BME280;47274;43.054;25.146;2023-08-30T00:53:22;94649.66;;;22.54;57.14
61408;BME280;47274;43.054;25.146;2023-08-30T00:55:48;94619.41;;;22.19;58.06
61408;BME280;47274;43.054;25.146;2023-08-30T00:58:14;94664.66;;;22.41;59.10
61408;BME280;47274;43.054;25.146;2023-08-30T01:00:41;94658.00;;;22.51;57.52
61408;BME280;47274;43.054;25.146;2023-08-30T01:03:09;94621.63;;;22.49;57.25
61408;BME280;47274;43.054;25.146;2023-08-30T01:05:35;94642.84;;;22.53;57.89
61408;BME280;47274;43.054;25.146;2023-08-30T01:08:03;94645.25;;;22.37;57.75
61408;BME280;47274;43.054;25.146;2023-08-30T01:11:22;94615.59;;;22.48;57.30
61408;BME280;47274;43.054;25.146;2023-08-30T01:13:22;94665.97;;;22.83;57.19
61408;BME280;47274;43.054;25.146;2023-08-30T01:15:54;94645.41;;;22.69;57.19
61408;BME280;47274;43.054;25.146;2023-08-30T01:18:22;94635.69;;;23.09;55.66
61408;BME280;47274;43.054;25.146;2023-08-30T01:20:52;94611.16;;;23.15;54.89
61408;BME280;47274;43.054;25.146;2023-08-30T01:23:34;94686.25;;;23.41;57.10
61408;BME280;47274;43.054;25.146;2023-08-30T01:26:13;94604.22;;;22.82;56.87
61408;BME280;47274;43.054;25.146;2023-08-30T01:28:39;94691.66;;;22.86;57.38
61408;BME280;47274;43.054;25.146;2023-08-30T01:31:07;94638.28;;;22.65;56.50
61408;BME280;47274;43.054;25.146;2023-08-30T01:33:39;94683.38;;;22.72;58.92
61408;BME280;47274;43.054;25.146;2023-08-30T01:36:05;94644.03;;;22.84;56.72
61408;BME280;47274;43.054;25.146;2023-08-30T01:38:35;94649.88;;;22.91;56.76
61408;BME280;47274;43.054;25.146;2023-08-30T01:41:02;94673.28;;;23.03;56.87
61408;BME280;47274;43.054;25.146;2023-08-30T01:43:32;94633.81;;;22.60;57.63
61408;BME280;47274;43.054;25.146;2023-08-30T01:45:59;94625.94;;;22.38;57.19
61408;BME280;47274;43.054;25.146;2023-08-30T01:48:27;94665.00;;;22.67;57.40
61408;BME280;47274;43.054;25.146;2023-08-30T01:50:57;94690.91;;;22.68;58.36
61408;BME280;47274;43.054;25.146;2023-08-30T01:53:26;94656.28;;;22.61;57.16
61408;BME280;47274;43.054;25.146;2023-08-30T01:55:54;94679.75;;;22.56;57.96
61408;BME280;47274;43.054;25.146;2023-08-30T01:58:22;94638.94;;;22.33;58.01
61408;BME280;47274;43.054;25.146;2023-08-30T02:00:48;94647.78;;;22.32;58.11
61408;BME280;47274;43.054;25.146;2023-08-30T02:03:14;94620.78;;;22.43;57.21
61408;BME280;47274;43.054;25.146;2023-08-30T02:06:08;94699.00;;;22.67;61.06
61408;BME280;47274;43.054;25.146;2023-08-30T02:08:41;94620.69;;;21.83;61.70
61408;BME280;47274;43.054;25.146;2023-08-30T02:11:23;94659.22;;;22.09;60.99
61408;BME280;47274;43.054;25.146;2023-08-30T02:13:54;94614.88;;;21.97;59.69
61408;BME280;47274;43.054;25.146;2023-08-30T02:16:23;94637.91;;;22.34;58.46
61408;BME280;47274;43.054;25.146;2023-08-30T02:18:55;94603.56;;;22.09;58.47
61408;BME280;47274;43.054;25.146;2023-08-30T02:21:21;94681.72;;;23.05;58.21
61408;BME280;47274;43.054;25.146;2023-08-30T02:23:51;94607.28;;;22.13;58.26
61408;BME280;47274;43.054;25.146;2023-08-30T02:26:20;94665.13;;;22.38;59.31
61408;BME280;47274;43.054;25.146;2023-08-30T02:28:46;94636.03;;;22.13;59.99
61408;BME280;47274;43.054;25.146;2023-08-30T02:31:13;94654.28;;;22.68;57.56
61408;BME280;47274;43.054;25.146;2023-08-30T02:33:38;94652.75;;;22.51;58.02
61408;BME280;47274;43.054;25.146;2023-08-30T02:36:05;94671.72;;;23.02;56.41
61408;BME280;47274;43.054;25.146;2023-08-30T02:38:31;94636.88;;;22.79;57.57
61408;BME280;47274;43.054;25.146;2023-08-30T02:40:57;94614.56;;;21.94;60.50
61408;BME280;47274;43.054;25.146;2023-08-30T02:43:23;94633.84;;;22.43;58.12
61408;BME280;47274;43.054;25.146;2023-08-30T02:45:50;94595.91;;;22.41;59.00
61408;BME280;47274;43.054;25.146;2023-08-30T02:48:18;94626.72;;;22.39;58.23
61408;BME280;47274;43.054;25.146;2023-08-30T02:50:44;94642.06;;;22.74;57.71
61408;BME280;47274;43.054;25.146;2023-08-30T02:53:10;94643.81;;;22.90;56.35
61408;BME280;47274;43.054;25.146;2023-08-30T02:55:46;94656.13;;;23.12;57.40
61408;BME280;47274;43.054;25.146;2023-08-30T02:58:13;94611.16;;;22.93;55.96
61408;BME280;47274;43.054;25.146;2023-08-30T03:00:40;94589.88;;;22.40;57.62
61408;BME280;47274;43.054;25.146;2023-08-30T03:03:07;94608.94;;;22.58;57.61
61408;BME280;47274;43.054;25.146;2023-08-30T03:05:38;94641.78;;;22.92;56.49
61408;BME280;47274;43.054;25.146;2023-08-30T03:08:04;94663.50;;;22.93;56.81
61408;BME280;47274;43.054;25.146;2023-08-30T03:10:34;94627.41;;;22.73;56.41
61408;BME280;47274;43.054;25.146;2023-08-30T03:13:02;94625.94;;;22.82;56.34
61408;BME280;47274;43.054;25.146;2023-08-30T03:15:31;94606.41;;;22.46;57.21
61408;BME280;47274;43.054;25.146;2023-08-30T03:18:00;94637.47;;;22.42;58.27
61408;BME280;47274;43.054;25.146;2023-08-30T03:20:27;94586.84;;;22.27;57.34
61408;BME280;47274;43.054;25.146;2023-08-30T03:22:57;94629.00;;;22.74;56.10
61408;BME280;47274;43.054;25.146;2023-08-30T03:25:29;94592.53;;;21.85;58.44
61408;BME280;47274;43.054;25.146;2023-08-30T03:27:55;94589.31;;;21.99;57.83
61408;BME280;47274;43.054;25.146;2023-08-30T03:30:23;94649.53;;;22.65;57.18
61408;BME280;47274;43.054;25.146;2023-08-30T03:32:52;94577.47;;;22.53;55.83
61408;BME280;47274;43.054;25.146;2023-08-30T03:35:18;94619.06;;;22.76;56.31
61408;BME280;47274;43.054;25.146;2023-08-30T03:37:47;94656.91;;;22.68;56.60
61408;BME280;47274;43.054;25.146;2023-08-30T03:40:13;94581.09;;;21.91;59.75
61408;BME280;47274;43.054;25.146;2023-08-30T03:42:42;94636.72;;;22.25;58.47
61408;BME280;47274;43.054;25.146;2023-08-30T03:45:08;94621.00;;;21.86;58.33
61408;BME280;47274;43.054;25.146;2023-08-30T03:47:34;94596.88;;;21.79;58.77
61408;BME280;47274;43.054;25.146;2023-08-30T03:52:34;94661.41;;;22.51;57.45
61408;BME280;47274;43.054;25.146;2023-08-30T03:55:01;94583.00;;;21.95;58.46
61408;BME280;47274;43.054;25.146;2023-08-30T03:57:29;94556.19;;;21.66;59.04
61408;BME280;47274;43.054;25.146;2023-08-30T03:59:55;94634.59;;;22.22;57.71
61408;BME280;47274;43.054;25.146;2023-08-30T04:02:24;94611.88;;;22.06;57.49
61408;BME280;47274;43.054;25.146;2023-08-30T04:04:53;94653.13;;;21.70;59.77
61408;BME280;47274;43.054;25.146;2023-08-30T04:07:18;94682.63;;;21.70;61.61
61408;BME280;47274;43.054;25.146;2023-08-30T04:09:44;94628.75;;;21.47;60.68
61408;BME280;47274;43.054;25.146;2023-08-30T04:12:10;94636.75;;;21.74;59.61
61408;BME280;47274;43.054;25.146;2023-08-30T04:14:36;94680.16;;;22.26;58.15
61408;BME280;47274;43.054;25.146;2023-08-30T04:17:02;94690.84;;;22.85;56.33
61408;BME280;47274;43.054;25.146;2023-08-30T04:19:28;94632.31;;;22.47;56.68
61408;BME280;47274;43.054;25.146;2023-08-30T04:21:53;94687.06;;;23.15;55.53
61408;BME280;47274;43.054;25.146;2023-08-30T04:24:19;94640.66;;;23.10;54.39
61408;BME280;47274;43.054;25.146;2023-08-30T04:26:47;94698.06;;;23.44;56.31
61408;BME280;47274;43.054;25.146;2023-08-30T04:29:17;94690.75;;;23.19;56.46
61408;BME280;47274;43.054;25.146;2023-08-30T04:31:43;94698.50;;;23.09;55.89
61408;BME280;47274;43.054;25.146;2023-08-30T04:34:10;94693.22;;;23.31;55.22
61408;BME280;47274;43.054;25.146;2023-08-30T04:36:35;94702.13;;;23.57;54.28
61408;BME280;47274;43.054;25.146;2023-08-30T04:39:02;94711.75;;;23.73;53.93
61408;BME280;47274;43.054;25.146;2023-08-30T04:41:29;94683.75;;;23.52;53.97
61408;BME280;47274;43.054;25.146;2023-08-30T04:44:04;94685.38;;;22.87;56.40
61408;BME280;47274;43.054;25.146;2023-08-30T04:46:32;94709.91;;;23.25;55.62
61408;BME280;47274;43.054;25.146;2023-08-30T04:49:00;94696.28;;;23.01;56.38
61408;BME280;47274;43.054;25.146;2023-08-30T04:51:26;94721.00;;;23.32;57.31
61408;BME280;47274;43.054;25.146;2023-08-30T04:53:52;94668.34;;;22.84;56.98
61408;BME280;47274;43.054;25.146;2023-08-30T04:56:18;94623.63;;;22.42;56.33
61408;BME280;47274;43.054;25.146;2023-08-30T04:58:44;94713.97;;;22.71;57.96
61408;BME280;47274;43.054;25.146;2023-08-30T05:01:11;94660.31;;;22.13;59.21
61408;BME280;47274;43.054;25.146;2023-08-30T05:03:44;94696.72;;;22.54;57.88
61408;BME280;47274;43.054;25.146;2023-08-30T05:06:12;94690.28;;;22.39;58.14
61408;BME280;47274;43.054;25.146;2023-08-30T05:08:42;94615.75;;;22.20;57.46
61408;BME280;47274;43.054;25.146;2023-08-30T05:11:07;94672.72;;;22.57;56.92
61408;BME280;47274;43.054;25.146;2023-08-30T05:13:36;94689.47;;;22.78;56.95
61408;BME280;47274;43.054;25.146;2023-08-30T05:16:02;94681.41;;;22.23;59.20
61408;BME280;47274;43.054;25.146;2023-08-30T05:18:28;94693.59;;;22.35;58.41
61408;BME280;47274;43.054;25.146;2023-08-30T05:20:54;94704.53;;;22.70;57.07
61408;BME280;47274;43.054;25.146;2023-08-30T05:23:20;94711.59;;;22.92;56.81
61408;BME280;47274;43.054;25.146;2023-08-30T05:25:46;94709.16;;;23.02;56.55
61408;BME280;47274;43.054;25.146;2023-08-30T05:28:13;94683.56;;;22.87;57.16
61408;BME280;47274;43.054;25.146;2023-08-30T05:30:43;94662.06;;;22.24;59.07
61408;BME280;47274;43.054;25.146;2023-08-30T05:33:15;94687.97;;;22.43;61.20
61408;BME280;47274;43.054;25.146;2023-08-30T05:35:59;94663.47;;;22.32;59.97
61408;BME280;47274;43.054;25.146;2023-08-30T05:38:30;94702.38;;;22.84;58.12
61408;BME280;47274;43.054;25.146;2023-08-30T05:41:14;94673.53;;;23.23;56.65
61408;BME280;47274;43.054;25.146;2023-08-30T05:43:40;94711.97;;;23.99;55.48
61408;BME280;47274;43.054;25.146;2023-08-30T05:46:08;94633.41;;;23.45;54.86
61408;BME280;47274;43.054;25.146;2023-08-30T05:48:40;94633.00;;;23.58;55.01
61408;BME280;47274;43.054;25.146;2023-08-30T05:51:06;94711.06;;;24.52;52.92
61408;BME280;47274;43.054;25.146;2023-08-30T05:53:32;94707.53;;;24.36;53.91
61408;BME280;47274;43.054;25.146;2023-08-30T05:56:01;94727.44;;;24.32;53.46
61408;BME280;47274;43.054;25.146;2023-08-30T05:58:27;94728.81;;;24.08;53.70
61408;BME280;47274;43.054;25.146;2023-08-30T06:00:53;94731.00;;;24.48;52.97
61408;BME280;47274;43.054;25.146;2023-08-30T06:03:19;94731.34;;;24.62;52.89
61408;BME280;47274;43.054;25.146;2023-08-30T06:05:44;94702.97;;;24.59;52.08
61408;BME280;47274;43.054;25.146;2023-08-30T06:08:16;94673.84;;;24.55;51.65
61408;BME280;47274;43.054;25.146;2023-08-30T06:10:43;94656.38;;;24.76;51.22
61408;BME280;47274;43.054;25.146;2023-08-30T06:13:09;94721.25;;;25.54;50.35
61408;BME280;47274;43.054;25.146;2023-08-30T06:15:35;94714.13;;;25.44;49.68
61408;BME280;47274;43.054;25.146;2023-08-30T06:18:06;94712.22;;;25.24;50.97
61408;BME280;47274;43.054;25.146;2023-08-30T06:20:32;94675.75;;;24.70;51.43
61408;BME280;47274;43.054;25.146;2023-08-30T06:22:58;94717.03;;;24.90;52.14
61408;BME280;47274;43.054;25.146;2023-08-30T06:25:24;94709.19;;;24.48;53.64
61408;BME280;47274;43.054;25.146;2023-08-30T06:27:58;94674.78;;;23.70;55.60
61408;BME280;47274;43.054;25.146;2023-08-30T06:30:25;94698.91;;;24.04;55.30
61408;BME280;47274;43.054;25.146;2023-08-30T06:32:51;94677.34;;;24.34;52.15
61408;BME280;47274;43.054;25.146;2023-08-30T06:35:17;94666.78;;;24.19;52.89
61408;BME280;47274;43.054;25.146;2023-08-30T06:37:42;94627.88;;;24.43;52.31
61408;BME280;47274;43.054;25.146;2023-08-30T06:40:09;94663.13;;;24.67;51.52
61408;BME280;47274;43.054;25.146;2023-08-30T06:42:35;94707.94;;;25.08;51.41
61408;BME280;47274;43.054;25.146;2023-08-30T06:45:02;94671.06;;;24.77;51.65
61408;BME280;47274;43.054;25.146;2023-08-30T06:47:30;94693.00;;;24.61;51.64
61408;BME280;47274;43.054;25.146;2023-08-30T06:49:56;94659.13;;;24.49;51.29
61408;BME280;47274;43.054;25.146;2023-08-30T06:52:25;94649.75;;;24.64;52.56
61408;BME280;47274;43.054;25.146;2023-08-30T06:54:50;94692.03;;;24.77;52.46
61408;BME280;47274;43.054;25.146;2023-08-30T06:57:16;94689.97;;;24.79;52.69
61408;BME280;47274;43.054;25.146;2023-08-30T06:59:42;94712.78;;;25.47;51.03
61408;BME280;47274;43.054;25.146;2023-08-30T07:02:08;94737.41;;;25.20;51.72
61408;BME280;47274;43.054;25.146;2023-08-30T07:04:39;94725.38;;;25.35;51.63
61408;BME280;47274;43.054;25.146;2023-08-30T07:07:05;94735.25;;;26.11;50.17
61408;BME280;47274;43.054;25.146;2023-08-30T07:09:31;94703.44;;;25.97;49.65
61408;BME280;47274;43.054;25.146;2023-08-30T07:11:58;94726.28;;;26.63;48.65
61408;BME280;47274;43.054;25.146;2023-08-30T07:14:24;94726.00;;;26.80;47.48
61408;BME280;47274;43.054;25.146;2023-08-30T07:16:51;94685.47;;;26.81;47.28
61408;BME280;47274;43.054;25.146;2023-08-30T07:19:17;94710.28;;;27.34;47.06
61408;BME280;47274;43.054;25.146;2023-08-30T07:21:45;94693.09;;;27.47;46.94
61408;BME280;47274;43.054;25.146;2023-08-30T07:24:11;94743.59;;;28.09;45.73
61408;BME280;47274;43.054;25.146;2023-08-30T07:26:37;94706.31;;;27.86;46.12
61408;BME280;47274;43.054;25.146;2023-08-30T07:29:03;94717.16;;;27.30;47.46
61408;BME280;47274;43.054;25.146;2023-08-30T07:31:33;94733.38;;;27.53;46.56
61408;BME280;47274;43.054;25.146;2023-08-30T07:33:59;94726.03;;;27.94;46.59
61408;BME280;47274;43.054;25.146;2023-08-30T07:36:26;94736.78;;;28.03;46.21
61408;BME280;47274;43.054;25.146;2023-08-30T07:38:52;94738.03;;;27.76;46.72
61408;BME280;47274;43.054;25.146;2023-08-30T07:41:18;94727.69;;;28.19;45.59
61408;BME280;47274;43.054;25.146;2023-08-30T07:43:43;94698.09;;;28.27;44.85
61408;BME280;47274;43.054;25.146;2023-08-30T07:46:09;94752.50;;;29.05;44.05
61408;BME280;47274;43.054;25.146;2023-08-30T07:48:35;94764.78;;;28.33;44.89
61408;BME280;47274;43.054;25.146;2023-08-30T07:51:01;94705.28;;;28.17;44.18
61408;BME280;47274;43.054;25.146;2023-08-30T07:53:26;94758.88;;;28.46;43.06
61408;BME280;47274;43.054;25.146;2023-08-30T07:55:52;94723.19;;;28.20;44.70
61408;BME280;47274;43.054;25.146;2023-08-30T07:58:18;94698.72;;;28.48;43.27
61408;BME280;47274;43.054;25.146;2023-08-30T08:00:49;94705.25;;;28.80;43.27
61408;BME280;47274;43.054;25.146;2023-08-30T08:03:15;94753.06;;;29.50;41.27
61408;BME280;47274;43.054;25.146;2023-08-30T08:05:41;94737.22;;;29.69;41.43
61408;BME280;47274;43.054;25.146;2023-08-30T08:08:09;94718.34;;;29.76;41.65
61408;BME280;47274;43.054;25.146;2023-08-30T08:10:36;94733.34;;;30.18;40.86
61408;BME280;47274;43.054;25.146;2023-08-30T08:13:02;94698.38;;;30.35;39.78
61408;BME280;47274;43.054;25.146;2023-08-30T08:15:31;94752.66;;;30.84;38.34
61408;BME280;47274;43.054;25.146;2023-08-30T08:17:58;94733.59;;;30.82;40.11
61408;BME280;47274;43.054;25.146;2023-08-30T08:20:23;94749.53;;;31.37;39.58
61408;BME280;47274;43.054;25.146;2023-08-30T08:22:49;94722.56;;;31.58;37.71
61408;BME280;47274;43.054;25.146;2023-08-30T08:25:15;94741.59;;;31.88;39.89
61408;BME280;47274;43.054;25.146;2023-08-30T08:27:42;94741.97;;;32.17;38.46
61408;BME280;47274;43.054;25.146;2023-08-30T08:30:08;94738.34;;;32.36;38.56
61408;BME280;47274;43.054;25.146;2023-08-30T08:32:37;94729.00;;;32.38;38.42
61408;BME280;47274;43.054;25.146;2023-08-30T08:35:03;94728.81;;;32.35;37.59
61408;BME280;47274;43.054;25.146;2023-08-30T08:37:29;94745.16;;;32.50;37.42
61408;BME280;47274;43.054;25.146;2023-08-30T08:39:55;94727.31;;;32.20;37.99
61408;BME280;47274;43.054;25.146;2023-08-30T08:42:21;94728.09;;;32.20;38.15
61408;BME280;47274;43.054;25.146;2023-08-30T08:44:48;94719.59;;;32.32;36.67
61408;BME280;47274;43.054;25.146;2023-08-30T08:47:25;94734.69;;;32.45;36.23
61408;BME280;47274;43.054;25.146;2023-08-30T08:49:51;94732.41;;;32.61;37.38
61408;BME280;47274;43.054;25.146;2023-08-30T08:52:17;94728.06;;;32.65;37.16
61408;BME280;47274;43.054;25.146;2023-08-30T08:54:44;94705.56;;;32.63;36.21
61408;BME280;47274;43.054;25.146;2023-08-30T08:57:10;94719.84;;;32.75;36.24
61408;BME280;47274;43.054;25.146;2023-08-30T08:59:36;94708.41;;;33.06;36.71
61408;BME280;47274;43.054;25.146;2023-08-30T09:02:06;94681.22;;;33.18;35.53
61408;BME280;47274;43.054;25.146;2023-08-30T09:04:32;94690.63;;;33.33;35.62
61408;BME280;47274;43.054;25.146;2023-08-30T09:07:01;94729.81;;;33.67;35.42
61408;BME280;47274;43.054;25.146;2023-08-30T09:09:27;94686.94;;;33.51;34.83
61408;BME280;47274;43.054;25.146;2023-08-30T09:11:56;94709.31;;;33.76;34.74
61408;BME280;47274;43.054;25.146;2023-08-30T09:14:25;94697.44;;;33.65;33.93
61408;BME280;47274;43.054;25.146;2023-08-30T09:17:03;94721.22;;;33.96;33.43
61408;BME280;47274;43.054;25.146;2023-08-30T09:19:29;94718.69;;;34.26;34.11
61408;BME280;47274;43.054;25.146;2023-08-30T09:21:57;94714.28;;;34.47;33.15
61408;BME280;47274;43.054;25.146;2023-08-30T09:24:23;94714.63;;;34.37;32.85
61408;BME280;47274;43.054;25.146;2023-08-30T09:26:51;94662.78;;;33.39;34.29
61408;BME280;47274;43.054;25.146;2023-08-30T09:29:18;94684.53;;;33.23;34.77
61408;BME280;47274;43.054;25.146;2023-08-30T09:31:45;94701.50;;;33.62;34.23
61408;BME280;47274;43.054;25.146;2023-08-30T09:34:11;94694.84;;;32.85;34.95
61408;BME280;47274;43.054;25.146;2023-08-30T09:36:40;94718.22;;;32.66;36.02
61408;BME280;47274;43.054;25.146;2023-08-30T09:39:14;94724.59;;;32.11;35.10
61408;BME280;47274;43.054;25.146;2023-08-30T09:41:48;94702.09;;;31.50;36.72
61408;BME280;47274;43.054;25.146;2023-08-30T09:44:21;94709.72;;;31.51;36.40
61408;BME280;47274;43.054;25.146;2023-08-30T09:46:55;94707.59;;;31.12;37.25
61408;BME280;47274;43.054;25.146;2023-08-30T09:49:23;94700.34;;;30.76;38.05
61408;BME280;47274;43.054;25.146;2023-08-30T09:51:50;94697.25;;;30.69;37.79
61408;BME280;47274;43.054;25.146;2023-08-30T09:54:18;94709.88;;;31.32;37.20
61408;BME280;47274;43.054;25.146;2023-08-30T09:56:45;94705.94;;;31.16;37.12
61408;BME280;47274;43.054;25.146;2023-08-30T09:59:12;94681.41;;;30.83;37.62
61408;BME280;47274;43.054;25.146;2023-08-30T10:01:41;94693.59;;;30.84;38.08
61408;BME280;47274;43.054;25.146;2023-08-30T10:04:08;94711.47;;;31.70;36.01
61408;BME280;47274;43.054;25.146;2023-08-30T10:06:35;94686.06;;;31.91;36.49
61408;BME280;47274;43.054;25.146;2023-08-30T10:09:02;94661.28;;;32.49;35.30
61408;BME280;47274;43.054;25.146;2023-08-30T10:11:37;94707.06;;;33.35;34.30
61408;BME280;47274;43.054;25.146;2023-08-30T10:14:04;94703.03;;;33.81;33.63
61408;BME280;47274;43.054;25.146;2023-08-30T10:16:47;94668.75;;;33.96;32.69
61408;BME280;47274;43.054;25.146;2023-08-30T10:19:19;94702.41;;;34.18;31.98
61408;BME280;47274;43.054;25.146;2023-08-30T10:21:57;94698.28;;;33.17;33.47
61408;BME280;47274;43.054;25.146;2023-08-30T10:24:26;94616.38;;;32.79;34.52
61408;BME280;47274;43.054;25.146;2023-08-30T10:26:54;94622.47;;;32.88;33.29
61408;BME280;47274;43.054;25.146;2023-08-30T10:29:22;94646.00;;;33.12;33.93
61408;BME280;47274;43.054;25.146;2023-08-30T10:31:49;94685.91;;;33.30;34.26
61408;BME280;47274;43.054;25.146;2023-08-30T10:34:16;94636.19;;;33.30;33.98
61408;BME280;47274;43.054;25.146;2023-08-30T10:36:43;94670.94;;;34.20;32.92
61408;BME280;47274;43.054;25.146;2023-08-30T10:39:13;94631.25;;;34.36;32.34
61408;BME280;47274;43.054;25.146;2023-08-30T10:41:56;94674.34;;;34.85;31.99
61408;BME280;47274;43.054;25.146;2023-08-30T10:44:24;94664.81;;;34.76;31.87
61408;BME280;47274;43.054;25.146;2023-08-30T10:46:54;94666.22;;;34.73;32.40
61408;BME280;47274;43.054;25.146;2023-08-30T10:49:23;94646.41;;;34.92;31.61
61408;BME280;47274;43.054;25.146;2023-08-30T10:51:57;94645.28;;;34.93;31.72
61408;BME280;47274;43.054;25.146;2023-08-30T10:54:23;94651.97;;;35.07;32.07
61408;BME280;47274;43.054;25.146;2023-08-30T10:56:55;94669.56;;;35.08;31.57
61408;BME280;47274;43.054;25.146;2023-08-30T10:59:27;94653.03;;;34.85;31.93
61408;BME280;47274;43.054;25.146;2023-08-30T11:01:55;94650.16;;;34.90;31.77
61408;BME280;47274;43.054;25.146;2023-08-30T11:04:26;94650.22;;;34.82;32.38
61408;BME280;47274;43.054;25.146;2023-08-30T11:06:52;94644.69;;;34.57;32.46
61408;BME280;47274;43.054;25.146;2023-08-30T11:09:20;94646.13;;;34.84;32.08
61408;BME280;47274;43.054;25.146;2023-08-30T11:11:51;94638.06;;;35.02;31.52
61408;BME280;47274;43.054;25.146;2023-08-30T11:14:19;94643.56;;;35.26;30.86
61408;BME280;47274;43.054;25.146;2023-08-30T11:16:52;94574.72;;;34.69;30.88
61408;BME280;47274;43.054;25.146;2023-08-30T11:19:21;94573.66;;;34.61;31.53
61408;BME280;47274;43.054;25.146;2023-08-30T11:21:47;94600.94;;;34.88;31.74
61408;BME280;47274;43.054;25.146;2023-08-30T11:24:15;94592.34;;;34.82;31.20
61408;BME280;47274;43.054;25.146;2023-08-30T11:26:43;94567.69;;;34.26;31.93
61408;BME280;47274;43.054;25.146;2023-08-30T11:29:09;94578.34;;;34.26;32.29
61408;BME280;47274;43.054;25.146;2023-08-30T11:31:36;94584.88;;;33.38;33.39
61408;BME280;47274;43.054;25.146;2023-08-30T11:34:02;94605.69;;;33.88;33.12
61408;BME280;47274;43.054;25.146;2023-08-30T11:36:30;94596.81;;;34.31;32.58
61408;BME280;47274;43.054;25.146;2023-08-30T11:38:56;94629.34;;;34.54;32.44
61408;BME280;47274;43.054;25.146;2023-08-30T11:41:23;94595.34;;;34.51;32.12
61408;BME280;47274;43.054;25.146;2023-08-30T11:43:51;94617.59;;;34.85;32.08
61408;BME280;47274;43.054;25.146;2023-08-30T11:46:17;94612.06;;;35.20;32.04
61408;BME280;47274;43.054;25.146;2023-08-30T11:48:47;94613.16;;;35.40;31.54
61408;BME280;47274;43.054;25.146;2023-08-30T11:51:14;94616.22;;;35.29;31.27
61408;BME280;47274;43.054;25.146;2023-08-30T11:53:40;94603.97;;;33.75;32.03
61408;BME280;47274;43.054;25.146;2023-08-30T11:56:06;94535.44;;;32.94;34.14
61408;BME280;47274;43.054;25.146;2023-08-30T11:58:34;94617.66;;;32.90;34.43
61408;BME280;47274;43.054;25.146;2023-08-30T12:01:00;94616.19;;;32.67;34.78
61408;BME280;47274;43.054;25.146;2023-08-30T12:03:30;94617.41;;;32.52;34.48
61408;BME280;47274;43.054;25.146;2023-08-30T12:05:59;94608.41;;;32.08;35.35
61408;BME280;47274;43.054;25.146;2023-08-30T12:08:27;94605.19;;;31.89;35.82
61408;BME280;47274;43.054;25.146;2023-08-30T12:10:56;94598.34;;;31.74;35.83
61408;BME280;47274;43.054;25.146;2023-08-30T12:13:42;94615.09;;;32.68;35.87
61408;BME280;47274;43.054;25.146;2023-08-30T12:16:16;94608.50;;;33.14;34.67
61408;BME280;47274;43.054;25.146;2023-08-30T12:18:43;94556.16;;;32.57;35.25
61408;BME280;47274;43.054;25.146;2023-08-30T12:21:09;94598.28;;;32.90;35.04
61408;BME280;47274;43.054;25.146;2023-08-30T12:23:40;94509.38;;;32.39;35.12
61408;BME280;47274;43.054;25.146;2023-08-30T12:26:10;94507.28;;;32.84;34.33
61408;BME280;47274;43.054;25.146;2023-08-30T12:28:37;94507.28;;;32.84;33.69
61408;BME280;47274;43.054;25.146;2023-08-30T12:31:04;94546.53;;;33.39;34.38
61408;BME280;47274;43.054;25.146;2023-08-30T12:33:30;94501.81;;;33.33;33.93
61408;BME280;47274;43.054;25.146;2023-08-30T12:35:57;94500.53;;;33.56;33.56
61408;BME280;47274;43.054;25.146;2023-08-30T12:38:26;94561.25;;;33.28;33.85
61408;BME280;47274;43.054;25.146;2023-08-30T12:40:55;94533.25;;;33.57;33.46
61408;BME280;47274;43.054;25.146;2023-08-30T12:43:24;94537.88;;;33.86;33.02
61408;BME280;47274;43.054;25.146;2023-08-30T12:45:50;94511.38;;;34.07;32.93
61408;BME280;47274;43.054;25.146;2023-08-30T12:48:17;94539.84;;;34.15;32.33
61408;BME280;47274;43.054;25.146;2023-08-30T12:50:46;94564.16;;;34.05;33.29
61408;BME280;47274;43.054;25.146;2023-08-30T12:53:13;94581.69;;;34.53;32.95
61408;BME280;47274;43.054;25.146;2023-08-30T12:55:40;94573.47;;;34.66;32.57
61408;BME280;47274;43.054;25.146;2023-08-30T12:58:09;94509.88;;;34.27;32.89